LSGSLSZS

Guest
Details From LSGS - Sion
To LSZS - Samedan
Flight Number -
Tags generated
Created
Modified
Stats Distance 108 nm / 200 km
Max Altitude 11,200 ft / 3,414 m
Waypoints 3
Social Downloads 4
Likes 0
Share VATSIM

Download

Looking for another format? Having issues loading an existing format? Contact us
Advertisement - Login to hide

Notes

Basic altitude profile: - Ascent Rate: 2500ft/min - Ascent Speed: 250kts - Cruise Altitude: 35000ft - Cruise Speed: 420kts - Descent Rate: 1500ft/min - Descent Speed: 250kts Options: - Use NATs: yes - Use PACOTS: yes - Use low airways: yes - Use high airways: yes

Route

LSGS DEGAD LSZS

ID Type Via Altitude Latitude Longitude Leg Dist Tot Dist Heading (true) Name
O LSGS APT - 0 ft / 0 m 46.21895˚ 7.32409˚ - 0 nm - Sion
DEGAD FIX - 11,200 ft / 3,414 m 46.43611˚ 8.61833˚ 55 nm 55 nm 76° / 77° -
O LSZS APT - 0 ft / 0 m 46.53421˚ 9.88394˚ 52 nm 107 nm 83° / 84° Samedan

Altitude Profile

Advertisement - Login to hide

LSGS

Details ICAO LSGS (SIR)
Name Sion
Region Switzerland
Timezone Europe/Zurich (UTC+1.0)
Stats Elevation 1,585 ft / 483 m (AMSL)
Location 46.218954° 7.324090°
Runways 2
Magnetic Variation 2.042° E

METAR

LSGS 151820Z AUTO VRB01KT 9999 OVC080 00/M01 Q1002

Decode

TAF

Not found

Departure Runways

ID Width Length Bearing (true) Bearing (mag) Surface Threshold Offset Overrun Length
07L 98 ft / 30 m 2,167 ft / 661 m 72.83° 70.79° Grass 0 ft / 0 m 0 ft / 0 m
07R 131 ft / 40 m 6,605 ft / 2,013 m 72.84° 70.80° Asphalt 164 ft / 50 m 627 ft / 191 m
25L 131 ft / 40 m 6,605 ft / 2,013 m 252.86° 250.82° Asphalt 164 ft / 50 m 627 ft / 191 m
25R 98 ft / 30 m 2,167 ft / 661 m 252.83° 250.79° Grass 328 ft / 100 m 0 ft / 0 m

LSZS

Details ICAO LSZS (SMV)
Name Samedan
Region Switzerland
Timezone Europe/Zurich (UTC+1.0)
Stats Elevation 5,600 ft / 1,707 m (AMSL)
Location 46.534207° 9.883938°
Runways 1
Magnetic Variation 2.657° E

METAR

LSZS 151820Z AUTO 21004KT CAVOK M13/M15 Q0997

Decode

TAF

Not found

Destination Runways

ID Width Length Bearing (true) Bearing (mag) Surface Threshold Offset Overrun Length
03 131 ft / 40 m 6,059 ft / 1,847 m 29.10° 26.44° Asphalt 0 ft / 0 m 0 ft / 0 m
21 131 ft / 40 m 6,059 ft / 1,847 m 209.10° 206.44° Asphalt 361 ft / 110 m 0 ft / 0 m

Popular Alternatives